createdAt,value
2018-07-22T00:02:23.089Z,99.90
2018-07-22T00:04:50.683Z,99.90
2018-07-22T00:07:18.467Z,99.90
2018-07-22T00:09:46.026Z,99.90
2018-07-22T00:12:13.599Z,99.90
2018-07-22T00:14:41.220Z,99.90
2018-07-22T00:17:08.776Z,99.90
2018-07-22T00:19:36.344Z,99.90
2018-07-22T00:22:04.042Z,99.90
2018-07-22T00:24:31.652Z,99.90
2018-07-22T00:26:59.204Z,99.90
2018-07-22T00:29:26.810Z,99.90
2018-07-22T00:31:54.442Z,99.90
2018-07-22T00:34:22.074Z,99.90
2018-07-22T00:36:49.718Z,99.90
2018-07-22T00:39:17.312Z,99.90
2018-07-22T00:41:44.914Z,99.90
2018-07-22T00:44:12.523Z,99.90
2018-07-22T00:46:40.104Z,99.90
2018-07-22T00:49:07.683Z,99.90
2018-07-22T00:51:35.278Z,99.90
2018-07-22T00:54:02.909Z,99.90
2018-07-22T00:56:30.505Z,99.90
2018-07-22T00:58:58.366Z,99.90
2018-07-22T01:01:26.062Z,99.90
2018-07-22T01:03:53.616Z,99.90
2018-07-22T01:06:21.233Z,99.90
2018-07-22T01:08:48.834Z,99.90
2018-07-22T01:11:16.483Z,99.90
2018-07-22T01:13:44.074Z,99.90
2018-07-22T01:16:11.686Z,99.90
2018-07-22T01:18:39.264Z,99.90
2018-07-22T01:21:06.907Z,99.90
2018-07-22T01:23:34.495Z,99.90
2018-07-22T01:28:29.621Z,99.90
2018-07-22T01:30:57.195Z,99.90
2018-07-22T01:33:24.792Z,99.90
2018-07-22T01:35:52.368Z,99.90
2018-07-22T01:38:20.000Z,99.90
2018-07-22T01:40:47.834Z,99.90
2018-07-22T01:43:15.565Z,99.90
2018-07-22T01:45:43.110Z,99.90
2018-07-22T01:48:10.670Z,99.90
2018-07-22T01:50:38.238Z,99.90
2018-07-22T01:53:05.844Z,99.90
2018-07-22T01:55:33.415Z,99.90
2018-07-22T01:58:01.063Z,99.90
2018-07-22T02:00:28.657Z,99.90
2018-07-22T02:02:58.851Z,99.90
2018-07-22T02:05:27.300Z,99.90
2018-07-22T02:07:54.926Z,99.90
2018-07-22T02:10:22.583Z,99.90
2018-07-22T02:12:50.194Z,99.90
2018-07-22T02:15:17.797Z,99.90
2018-07-22T02:17:45.396Z,99.90
2018-07-22T02:20:12.991Z,99.90
2018-07-22T02:22:40.573Z,99.90
2018-07-22T02:25:08.215Z,99.90
2018-07-22T02:27:35.859Z,99.90
2018-07-22T02:30:03.876Z,99.90
2018-07-22T02:32:31.494Z,99.90
2018-07-22T02:34:59.125Z,99.90
2018-07-22T02:37:27.085Z,99.90
2018-07-22T02:39:54.705Z,99.90
2018-07-22T02:42:22.353Z,99.90
2018-07-22T02:44:50.113Z,99.90
2018-07-22T02:47:17.638Z,99.90
2018-07-22T02:49:45.413Z,99.90
2018-07-22T02:52:13.028Z,99.90
2018-07-22T02:54:40.581Z,99.90
2018-07-22T02:57:08.882Z,99.90
2018-07-22T02:59:36.464Z,99.90
2018-07-22T03:02:04.102Z,99.90
2018-07-22T03:04:31.730Z,99.90
2018-07-22T03:06:59.328Z,99.90
2018-07-22T03:09:26.902Z,99.90
2018-07-22T03:11:54.513Z,99.90
2018-07-22T03:14:22.171Z,99.90
2018-07-22T03:16:49.886Z,99.90
2018-07-22T03:19:17.618Z,99.90
2018-07-22T03:21:45.385Z,99.90
2018-07-22T03:24:13.014Z,99.90
2018-07-22T03:26:40.595Z,99.90
2018-07-22T03:29:08.148Z,99.90
2018-07-22T03:31:35.690Z,99.90
2018-07-22T03:34:03.371Z,99.90
2018-07-22T03:36:30.962Z,99.90
2018-07-22T03:38:58.523Z,99.90
2018-07-22T03:41:26.144Z,99.90
2018-07-22T03:43:53.770Z,99.90
2018-07-22T03:46:21.385Z,99.90
2018-07-22T03:48:49.065Z,99.90
2018-07-22T03:51:16.619Z,99.90
2018-07-22T03:53:44.224Z,99.90
2018-07-22T03:56:11.879Z,99.90
2018-07-22T03:58:39.521Z,99.90
2018-07-22T04:01:07.081Z,99.90
2018-07-22T04:03:34.685Z,99.90
2018-07-22T04:06:02.314Z,99.90
2018-07-22T04:08:30.117Z,99.90
2018-07-22T04:10:57.765Z,99.90
2018-07-22T04:13:25.364Z,99.90
2018-07-22T04:15:52.971Z,99.90
2018-07-22T04:18:20.598Z,99.90
2018-07-22T04:20:48.245Z,99.90
2018-07-22T04:23:15.829Z,99.90
2018-07-22T04:25:43.492Z,99.90
2018-07-22T04:28:11.037Z,99.90
2018-07-22T04:30:38.648Z,99.90
2018-07-22T04:33:06.275Z,99.90
2018-07-22T04:35:33.819Z,99.90
2018-07-22T04:38:01.429Z,99.90
2018-07-22T04:40:29.075Z,99.90
2018-07-22T04:42:56.625Z,99.90
2018-07-22T04:45:24.334Z,99.90
2018-07-22T04:47:51.955Z,99.90
2018-07-22T04:50:19.601Z,99.90
2018-07-22T04:52:47.179Z,99.90
2018-07-22T04:55:14.821Z,99.90
2018-07-22T04:57:42.441Z,99.90
2018-07-22T05:00:10.095Z,99.90
2018-07-22T05:02:37.685Z,99.90
2018-07-22T05:05:05.285Z,99.90
2018-07-22T05:07:32.901Z,99.90
2018-07-22T05:12:27.966Z,99.90
2018-07-22T05:14:55.581Z,99.90
2018-07-22T05:17:23.909Z,99.90
2018-07-22T05:19:51.561Z,99.90
2018-07-22T05:22:19.173Z,99.90
2018-07-22T05:24:46.777Z,99.90
2018-07-22T05:27:14.356Z,99.90
2018-07-22T05:29:42.030Z,99.90
2018-07-22T05:32:09.604Z,99.90
2018-07-22T05:34:37.170Z,99.90
2018-07-22T05:37:05.042Z,99.90
2018-07-22T05:39:32.666Z,99.90
2018-07-22T05:42:00.299Z,99.90
2018-07-22T05:44:27.951Z,99.90
2018-07-22T05:46:55.566Z,99.90
2018-07-22T05:49:23.158Z,99.90
2018-07-22T05:51:50.821Z,99.90
2018-07-22T05:54:18.449Z,99.90
2018-07-22T05:56:46.078Z,99.90
2018-07-22T05:59:13.680Z,99.90
2018-07-22T06:01:41.278Z,99.90
2018-07-22T06:04:08.889Z,99.90
2018-07-22T06:09:06.628Z,99.90
2018-07-22T06:11:34.214Z,99.90
2018-07-22T06:14:01.826Z,99.90
2018-07-22T06:16:29.426Z,99.90
2018-07-22T06:18:57.059Z,99.90
2018-07-22T06:21:24.643Z,99.90
2018-07-22T06:23:52.237Z,99.90
2018-07-22T06:26:19.791Z,99.90
2018-07-22T06:28:47.389Z,99.90
2018-07-22T06:31:15.013Z,99.90
2018-07-22T06:33:42.605Z,99.90
2018-07-22T06:36:10.193Z,99.90
2018-07-22T06:38:37.750Z,99.90
2018-07-22T06:41:05.395Z,99.90
2018-07-22T06:43:32.947Z,99.90
2018-07-22T06:46:00.608Z,99.90
2018-07-22T06:48:28.196Z,99.90
2018-07-22T06:50:55.899Z,99.90
2018-07-22T06:53:23.501Z,99.90
2018-07-22T06:55:51.073Z,99.90
2018-07-22T06:58:18.761Z,99.90
2018-07-22T07:00:46.373Z,99.90
2018-07-22T07:03:13.937Z,99.90
2018-07-22T07:05:41.513Z,99.90
2018-07-22T07:08:09.121Z,99.90
2018-07-22T07:10:36.705Z,99.90
2018-07-22T07:13:04.395Z,99.90
2018-07-22T07:15:31.997Z,99.90
2018-07-22T07:17:59.627Z,99.90
2018-07-22T07:20:27.345Z,99.90
2018-07-22T07:22:55.010Z,99.90
2018-07-22T07:25:22.585Z,99.90
2018-07-22T07:27:50.481Z,99.90
2018-07-22T07:30:18.135Z,99.90
2018-07-22T07:32:45.749Z,99.90
2018-07-22T07:35:13.361Z,99.90
2018-07-22T07:37:40.985Z,99.90
2018-07-22T07:40:08.551Z,99.90
2018-07-22T07:42:36.245Z,99.90
2018-07-22T07:45:04.370Z,99.90
2018-07-22T07:47:31.991Z,99.90
2018-07-22T07:49:59.660Z,99.90
2018-07-22T07:52:27.632Z,99.90
2018-07-22T07:54:55.417Z,99.90
2018-07-22T07:57:23.100Z,99.90
2018-07-22T07:59:53.518Z,99.90
2018-07-22T08:04:49.624Z,99.90
2018-07-22T08:07:17.402Z,99.90
2018-07-22T08:09:45.194Z,99.90
2018-07-22T08:12:13.112Z,99.50
2018-07-22T08:14:40.836Z,95.80
2018-07-22T08:17:08.618Z,92.60
2018-07-22T08:19:36.438Z,90.30
2018-07-22T08:22:04.415Z,86.10
2018-07-22T08:24:32.172Z,84.60
2018-07-22T08:27:00.009Z,83.20
2018-07-22T08:29:31.543Z,81.90
2018-07-22T08:31:59.955Z,81.50
2018-07-22T08:34:28.223Z,79.30
2018-07-22T08:36:56.247Z,76.80
2018-07-22T08:39:25.181Z,73.30
2018-07-22T08:41:53.532Z,69.80
2018-07-22T08:44:21.244Z,64.30
2018-07-22T08:46:48.848Z,60.70
2018-07-22T08:49:16.620Z,59.60
2018-07-22T08:51:44.540Z,59.80
2018-07-22T08:54:12.344Z,60.00
2018-07-22T08:56:40.210Z,57.40
2018-07-22T08:59:08.065Z,55.80
2018-07-22T09:01:35.987Z,53.70
2018-07-22T09:04:04.174Z,51.60
2018-07-22T09:06:32.037Z,52.40
2018-07-22T09:08:59.835Z,52.10
2018-07-22T09:11:27.919Z,53.60
2018-07-22T09:13:56.477Z,55.70
2018-07-22T09:16:24.221Z,56.90
2018-07-22T09:18:52.076Z,58.20
2018-07-22T09:21:20.197Z,59.50
2018-07-22T09:23:48.012Z,60.40
2018-07-22T09:26:15.688Z,61.20
2018-07-22T09:28:43.435Z,60.60
2018-07-22T09:31:11.002Z,60.50
2018-07-22T09:33:38.610Z,61.40
2018-07-22T09:36:06.380Z,61.80
2018-07-22T09:38:33.972Z,62.50
2018-07-22T09:41:01.646Z,61.80
2018-07-22T09:43:29.300Z,61.90
2018-07-22T09:45:56.959Z,62.80
2018-07-22T09:48:25.224Z,61.80
2018-07-22T09:50:53.563Z,61.70
2018-07-22T09:53:21.186Z,62.20
2018-07-22T09:55:49.330Z,62.60
2018-07-22T09:58:17.004Z,62.70
2018-07-22T10:00:50.393Z,62.80
2018-07-22T10:03:18.073Z,63.00
2018-07-22T10:05:45.681Z,63.70
2018-07-22T10:08:13.284Z,63.50
2018-07-22T10:10:40.950Z,63.90
2018-07-22T10:13:09.320Z,63.30
2018-07-22T10:15:36.912Z,63.50
2018-07-22T10:18:04.736Z,64.40
2018-07-22T10:20:32.364Z,65.40
2018-07-22T10:23:00.014Z,65.80
2018-07-22T10:25:27.605Z,65.00
2018-07-22T10:27:55.194Z,63.60
2018-07-22T10:30:22.781Z,63.30
2018-07-22T10:32:50.449Z,63.70
2018-07-22T10:35:18.169Z,64.20
2018-07-22T10:37:45.765Z,65.00
2018-07-22T10:40:14.370Z,65.30
2018-07-22T10:42:41.968Z,65.00
2018-07-22T10:45:09.579Z,64.10
2018-07-22T10:47:37.859Z,63.30
2018-07-22T10:50:05.559Z,61.90
2018-07-22T10:52:33.161Z,62.50
2018-07-22T10:55:00.890Z,63.10
2018-07-22T10:57:28.575Z,64.00
2018-07-22T10:59:56.200Z,64.40
2018-07-22T11:02:23.977Z,64.50
2018-07-22T11:04:51.615Z,63.70
2018-07-22T11:07:19.530Z,63.10
2018-07-22T11:09:47.166Z,62.90
2018-07-22T11:12:14.737Z,63.00
2018-07-22T11:14:42.481Z,64.30
2018-07-22T11:17:10.094Z,64.20
2018-07-22T11:19:37.754Z,64.30
2018-07-22T11:22:05.541Z,63.80
2018-07-22T11:24:33.230Z,64.40
2018-07-22T11:27:00.845Z,64.90
2018-07-22T11:29:28.458Z,64.30
2018-07-22T11:31:56.214Z,64.10
2018-07-22T11:34:23.841Z,64.30
2018-07-22T11:36:51.453Z,64.30
2018-07-22T11:39:19.088Z,63.90
2018-07-22T11:41:46.692Z,63.60
2018-07-22T11:44:14.280Z,63.70
2018-07-22T11:46:41.894Z,63.10
2018-07-22T11:49:09.485Z,62.50
2018-07-22T11:51:37.979Z,62.50
2018-07-22T11:54:06.182Z,62.70
2018-07-22T11:56:33.902Z,62.70
2018-07-22T11:59:01.550Z,62.80
2018-07-22T12:01:29.251Z,63.50
2018-07-22T12:03:57.094Z,63.70
2018-07-22T12:06:24.736Z,63.40
2018-07-22T12:08:52.378Z,63.10
2018-07-22T12:11:19.951Z,62.80
2018-07-22T12:13:47.589Z,63.30
2018-07-22T12:16:15.116Z,63.70
2018-07-22T12:18:42.714Z,64.00
2018-07-22T12:21:10.460Z,65.10
2018-07-22T12:23:38.110Z,65.50
2018-07-22T12:26:05.692Z,65.70
2018-07-22T12:28:33.334Z,65.20
2018-07-22T12:31:02.582Z,65.30
2018-07-22T12:33:30.236Z,64.50
2018-07-22T12:35:57.785Z,64.50
2018-07-22T12:38:25.416Z,63.30
2018-07-22T12:40:53.000Z,62.80
2018-07-22T12:43:20.604Z,59.90
2018-07-22T12:45:48.207Z,59.90
2018-07-22T12:48:15.833Z,60.50
2018-07-22T12:50:43.372Z,60.70
2018-07-22T12:53:10.999Z,60.60
2018-07-22T12:55:38.708Z,60.20
2018-07-22T12:58:06.595Z,60.00
2018-07-22T13:00:34.175Z,59.80
2018-07-22T13:03:01.783Z,59.40
2018-07-22T13:05:29.359Z,58.60
2018-07-22T13:07:57.025Z,58.40
2018-07-22T13:10:24.649Z,58.50
2018-07-22T13:12:52.249Z,59.30
2018-07-22T13:15:19.875Z,64.20
2018-07-22T13:17:47.755Z,65.70
2018-07-22T13:20:15.650Z,66.00
2018-07-22T13:22:43.354Z,66.20
2018-07-22T13:25:10.976Z,65.70
2018-07-22T13:27:38.577Z,65.50
2018-07-22T13:30:06.742Z,65.20
2018-07-22T13:32:34.379Z,64.70
2018-07-22T13:35:01.984Z,64.10
2018-07-22T13:37:29.580Z,63.80
2018-07-22T13:39:57.166Z,64.10
2018-07-22T13:42:24.742Z,64.40
2018-07-22T13:44:52.374Z,64.40
2018-07-22T13:47:19.982Z,65.40
2018-07-22T13:49:47.574Z,66.80
2018-07-22T13:52:15.203Z,67.70
2018-07-22T13:54:42.842Z,65.90
2018-07-22T13:57:10.434Z,63.90
2018-07-22T13:59:38.070Z,64.70
2018-07-22T14:02:06.202Z,64.50
2018-07-22T14:04:33.768Z,65.30
2018-07-22T14:07:01.409Z,65.20
2018-07-22T14:09:29.081Z,66.00
2018-07-22T14:11:56.650Z,66.60
2018-07-22T14:14:24.470Z,66.80
2018-07-22T14:16:52.084Z,67.10
2018-07-22T14:19:19.647Z,69.10
2018-07-22T14:21:47.273Z,70.70
2018-07-22T14:24:14.916Z,70.30
2018-07-22T14:26:42.511Z,69.60
2018-07-22T14:29:10.250Z,69.70
2018-07-22T14:31:37.875Z,70.20
2018-07-22T14:34:05.420Z,70.00
2018-07-22T14:36:33.077Z,69.90
2018-07-22T14:39:00.679Z,69.80
2018-07-22T14:43:55.841Z,69.70
2018-07-22T14:46:23.543Z,69.70
2018-07-22T14:48:51.138Z,70.30
2018-07-22T14:51:18.754Z,70.00
2018-07-22T14:53:46.335Z,70.10
2018-07-22T14:58:41.608Z,71.20
2018-07-22T15:01:11.787Z,70.40
2018-07-22T15:03:40.286Z,70.50
2018-07-22T15:08:35.526Z,71.70
2018-07-22T15:11:03.476Z,73.00
2018-07-22T15:13:31.133Z,72.90
2018-07-22T15:15:58.712Z,73.10
2018-07-22T15:18:26.339Z,73.40
2018-07-22T15:20:54.830Z,73.40
2018-07-22T15:23:22.605Z,73.70
2018-07-22T15:25:50.157Z,74.10
2018-07-22T15:28:17.795Z,74.40
2018-07-22T15:30:45.513Z,75.00
2018-07-22T15:33:13.105Z,75.30
2018-07-22T15:35:41.084Z,75.40
2018-07-22T15:38:08.685Z,75.60
2018-07-22T15:40:36.243Z,75.50
2018-07-22T15:43:03.967Z,75.30
2018-07-22T15:45:31.542Z,75.40
2018-07-22T15:47:59.189Z,75.10
2018-07-22T15:50:26.885Z,75.20
2018-07-22T15:52:54.493Z,75.40
2018-07-22T15:55:22.199Z,75.50
2018-07-22T15:57:49.729Z,75.30
2018-07-22T16:00:17.417Z,74.80
2018-07-22T16:05:12.786Z,74.70
2018-07-22T16:07:40.433Z,75.00
2018-07-22T16:10:08.022Z,75.30
2018-07-22T16:12:35.658Z,75.30
2018-07-22T16:15:03.659Z,74.60
2018-07-22T16:17:31.261Z,74.10
2018-07-22T16:19:58.883Z,74.30
2018-07-22T16:22:26.796Z,75.80
2018-07-22T16:24:54.390Z,75.80
2018-07-22T16:27:24.241Z,76.30
2018-07-22T16:29:51.822Z,77.10
2018-07-22T16:32:19.411Z,77.20
2018-07-22T16:34:47.253Z,77.40
2018-07-22T16:37:15.549Z,77.00
2018-07-22T16:39:43.212Z,77.10
2018-07-22T16:42:10.940Z,77.80
2018-07-22T16:44:38.516Z,78.10
2018-07-22T16:47:06.133Z,79.20
2018-07-22T16:49:33.811Z,79.80
2018-07-22T16:52:01.398Z,80.10
2018-07-22T16:56:56.556Z,81.40
2018-07-22T16:59:24.117Z,82.80
2018-07-22T17:01:51.749Z,82.60
2018-07-22T17:04:19.368Z,83.20
2018-07-22T17:06:46.964Z,83.80
2018-07-22T17:09:14.552Z,84.20
2018-07-22T17:11:42.209Z,84.50
2018-07-22T17:14:09.764Z,84.80
2018-07-22T17:16:37.393Z,85.40
2018-07-22T17:19:05.017Z,84.70
2018-07-22T17:21:32.629Z,84.90
2018-07-22T17:24:00.333Z,85.90
2018-07-22T17:26:27.939Z,87.80
2018-07-22T17:28:55.563Z,87.90
2018-07-22T17:31:23.243Z,88.70
2018-07-22T17:33:50.849Z,89.50
2018-07-22T17:36:18.421Z,89.70
2018-07-22T17:38:46.097Z,89.50
2018-07-22T17:41:13.664Z,90.30
2018-07-22T17:43:41.281Z,90.60
2018-07-22T17:46:08.829Z,90.90
2018-07-22T17:48:36.505Z,91.50
2018-07-22T17:51:04.146Z,92.20
2018-07-22T17:53:31.987Z,92.60
2018-07-22T17:55:59.749Z,93.20
2018-07-22T17:58:27.341Z,93.80
2018-07-22T18:00:54.946Z,94.10
2018-07-22T18:03:25.190Z,94.50
2018-07-22T18:05:52.890Z,95.10
2018-07-22T18:08:20.707Z,95.40
2018-07-22T18:10:49.238Z,95.80
2018-07-22T18:13:17.172Z,96.10
2018-07-22T18:15:44.768Z,96.50
2018-07-22T18:18:12.905Z,96.80
2018-07-22T18:20:40.781Z,97.00
2018-07-22T18:23:08.591Z,97.40
2018-07-22T18:25:36.160Z,97.80
2018-07-22T18:28:03.930Z,98.20
2018-07-22T18:30:31.584Z,98.60
2018-07-22T18:32:59.316Z,99.10
2018-07-22T18:35:27.206Z,99.70
2018-07-22T18:37:55.301Z,99.90
2018-07-22T18:40:23.773Z,99.90
2018-07-22T18:42:51.335Z,99.90
2018-07-22T18:45:19.027Z,99.90
2018-07-22T18:50:14.192Z,99.90
2018-07-22T18:52:41.827Z,99.90
2018-07-22T18:55:09.501Z,99.90
2018-07-22T18:57:37.453Z,99.90
2018-07-22T19:00:05.187Z,99.90
2018-07-22T19:02:32.841Z,99.90
2018-07-22T19:05:00.410Z,99.90
2018-07-22T19:07:28.149Z,99.90
2018-07-22T19:09:55.773Z,99.90
2018-07-22T19:12:23.369Z,99.90
2018-07-22T19:14:50.969Z,99.90
2018-07-22T19:17:19.082Z,99.90
2018-07-22T19:19:46.809Z,99.90
2018-07-22T19:24:42.008Z,99.90
2018-07-22T19:29:37.174Z,99.90
2018-07-22T19:32:05.272Z,99.90
2018-07-22T19:34:32.882Z,99.90
2018-07-22T19:37:00.514Z,99.90
2018-07-22T19:39:28.156Z,99.90
2018-07-22T19:41:55.754Z,99.90
2018-07-22T19:44:23.330Z,99.90
2018-07-22T19:46:50.950Z,99.90
2018-07-22T19:49:18.608Z,99.90
2018-07-22T19:51:46.170Z,99.90
2018-07-22T19:54:13.800Z,99.90
2018-07-22T19:56:41.398Z,99.90
2018-07-22T19:59:08.972Z,99.90
2018-07-22T20:01:39.418Z,99.90
2018-07-22T20:04:07.787Z,99.90
2018-07-22T20:06:35.673Z,99.90
2018-07-22T20:09:04.984Z,99.90
2018-07-22T20:11:32.701Z,99.90
2018-07-22T20:14:00.409Z,99.90
2018-07-22T20:16:28.039Z,99.90
2018-07-22T20:18:55.589Z,99.90
2018-07-22T20:21:23.265Z,99.90
2018-07-22T20:23:50.967Z,99.90
2018-07-22T20:26:18.531Z,99.90
2018-07-22T20:28:46.155Z,99.90
2018-07-22T20:31:14.097Z,99.90
2018-07-22T20:33:41.661Z,99.90
2018-07-22T20:36:09.299Z,99.90
2018-07-22T20:38:36.869Z,99.90
2018-07-22T20:41:04.561Z,99.90
2018-07-22T20:43:32.355Z,99.90
2018-07-22T20:46:00.082Z,99.90
2018-07-22T20:48:27.788Z,99.90
2018-07-22T20:50:55.379Z,99.90
2018-07-22T20:53:23.202Z,99.90
2018-07-22T20:55:50.800Z,99.90
2018-07-22T20:58:18.400Z,99.90
2018-07-22T21:00:46.005Z,99.90
2018-07-22T21:03:16.541Z,99.90
2018-07-22T21:05:44.157Z,99.90
2018-07-22T21:08:11.761Z,99.90
2018-07-22T21:10:39.446Z,99.90
2018-07-22T21:13:16.815Z,99.90
2018-07-22T21:15:44.570Z,99.90
2018-07-22T21:18:12.180Z,99.90
2018-07-22T21:20:41.021Z,99.90
2018-07-22T21:23:08.623Z,99.90
2018-07-22T21:25:37.065Z,99.90
2018-07-22T21:28:04.886Z,99.90
2018-07-22T21:30:32.513Z,99.90
2018-07-22T21:33:00.057Z,99.90
2018-07-22T21:35:27.686Z,99.90
2018-07-22T21:37:55.361Z,99.90
2018-07-22T21:40:23.034Z,99.90
2018-07-22T21:42:50.701Z,99.90
2018-07-22T21:45:18.292Z,99.90
2018-07-22T21:47:45.911Z,99.90
2018-07-22T21:50:13.575Z,99.90
2018-07-22T21:52:41.297Z,99.90
2018-07-22T21:55:08.936Z,99.90
2018-07-22T22:00:11.015Z,99.90
2018-07-22T22:02:38.686Z,99.90
2018-07-22T22:05:06.288Z,99.90
2018-07-22T22:07:33.955Z,99.90
2018-07-22T22:10:01.606Z,99.90
2018-07-22T22:12:29.249Z,99.90
2018-07-22T22:14:56.888Z,99.90
2018-07-22T22:17:24.690Z,99.90
2018-07-22T22:19:52.433Z,99.90
2018-07-22T22:22:20.101Z,99.90
2018-07-22T22:24:48.195Z,99.90
2018-07-22T22:27:15.813Z,99.90
2018-07-22T22:29:43.387Z,99.90
2018-07-22T22:32:11.191Z,99.90
2018-07-22T22:34:39.011Z,99.90
2018-07-22T22:37:06.921Z,99.90
2018-07-22T22:39:34.627Z,99.90
2018-07-22T22:42:02.293Z,99.90
2018-07-22T22:44:29.889Z,99.90
2018-07-22T22:46:57.599Z,99.90
2018-07-22T22:49:25.189Z,99.90
2018-07-22T22:51:52.961Z,99.90
2018-07-22T22:54:20.516Z,99.90
2018-07-22T22:59:21.700Z,99.90
2018-07-22T23:01:49.666Z,99.90
2018-07-22T23:04:17.414Z,99.90
2018-07-22T23:06:45.204Z,99.90
2018-07-22T23:09:14.115Z,99.90
2018-07-22T23:11:42.356Z,99.90
2018-07-22T23:14:10.125Z,99.90
2018-07-22T23:16:38.651Z,99.90
2018-07-22T23:19:06.589Z,99.90
2018-07-22T23:21:34.585Z,99.90
2018-07-22T23:24:02.179Z,99.90
2018-07-22T23:26:30.583Z,99.90
2018-07-22T23:28:58.219Z,99.90
2018-07-22T23:31:25.811Z,99.90
2018-07-22T23:33:53.801Z,99.90
2018-07-22T23:36:21.394Z,99.90
2018-07-22T23:38:49.177Z,99.90
2018-07-22T23:41:16.765Z,99.90
2018-07-22T23:43:44.405Z,99.90
2018-07-22T23:46:12.015Z,99.90
2018-07-22T23:48:39.626Z,99.90
2018-07-22T23:51:07.490Z,99.90
2018-07-22T23:53:35.123Z,99.90
2018-07-22T23:56:02.773Z,99.90
2018-07-22T23:58:30.670Z,99.90
